Ferguson, Kentucky
Current Conditions -  °F | °C
As of 5:35 AM on Thursday 27 Nov 2014 (Local Time) from KSME Reporting Station
Light Snow Light Snow  
Wind Chill: 32°   Ceiling: 300
Heat Index: 32°   Visibility: 2.5mi
Dew Point: 32°   Wind: 3mph
Humidity: 100%   Direction: 320°NW
Pressure: 30.12"   Gusts: NA
Location:  37.07°N, 84.6°W
Report Text: KSME 271035Z AUTO 32003KT 2 1/2SM -SN OVC003 00/00 A3012 RMK AO2 P0002
Loading
Personal Weather Stations






























Interactive Weather Map New forecast layout! Learn more

10-Day Weather Forecast

Advertisements
Track Severe Weather on mobile